createdAt,value
2022-09-05T00:00:02.189Z,100277.28
2022-09-05T00:02:51.270Z,100277.84
2022-09-05T00:06:01.714Z,100282.34
2022-09-05T00:08:43.810Z,100284.72
2022-09-05T00:11:42.401Z,100287.59
2022-09-05T00:14:36.740Z,100286.88
2022-09-05T00:17:18.617Z,100287.44
2022-09-05T00:24:21.854Z,100290.84
2022-09-05T00:24:31.786Z,100282.97
2022-09-05T00:26:09.587Z,100284.03
2022-09-05T00:28:44.342Z,100280.50
2022-09-05T00:31:54.744Z,100283.31
2022-09-05T00:34:38.804Z,100278.16
2022-09-05T00:37:27.937Z,100277.37
2022-09-05T00:40:18.300Z,100276.41
2022-09-05T00:42:50.199Z,100267.75
2022-09-05T00:45:27.515Z,100272.00
2022-09-05T00:48:03.174Z,100269.66
2022-09-05T00:50:38.577Z,100272.53
2022-09-05T00:53:15.781Z,100275.44
2022-09-05T00:55:57.923Z,100272.88
2022-09-05T00:58:46.170Z,100277.28
2022-09-05T01:01:27.961Z,100274.25
2022-09-05T01:04:05.890Z,100277.69
2022-09-05T01:06:49.227Z,100281.97
2022-09-05T01:09:27.563Z,100272.38
2022-09-05T01:12:11.564Z,100268.97
2022-09-05T01:14:52.349Z,100273.63
2022-09-05T01:17:31.431Z,100270.87
2022-09-05T01:20:19.032Z,100268.31
2022-09-05T01:23:30.045Z,100270.53
2022-09-05T01:26:11.124Z,100266.84
2022-09-05T01:29:15.430Z,100264.03
2022-09-05T01:31:38.996Z,100264.16
2022-09-05T01:34:13.698Z,100270.31
2022-09-05T01:36:55.054Z,100264.47
2022-09-05T01:40:11.720Z,100267.19
2022-09-05T01:42:31.860Z,100274.47
2022-09-05T01:45:06.475Z,100269.56
2022-09-05T01:47:45.367Z,100268.19
2022-09-05T01:50:25.888Z,100277.63
2022-09-05T01:53:09.650Z,100278.13
2022-09-05T01:56:04.846Z,100272.78
2022-09-05T01:58:45.569Z,100281.72
2022-09-05T02:01:25.434Z,100274.91
2022-09-05T02:04:23.176Z,100280.06
2022-09-05T02:07:19.278Z,100278.91
2022-09-05T02:10:04.912Z,100278.56
2022-09-05T02:12:41.255Z,100278.81
2022-09-05T02:15:16.141Z,100280.00
2022-09-05T02:17:51.877Z,100284.06
2022-09-05T02:20:24.415Z,100276.84
2022-09-05T02:23:00.533Z,100280.59
2022-09-05T02:26:02.526Z,100270.91
2022-09-05T02:28:30.819Z,100279.94
2022-09-05T02:31:19.988Z,100278.66
2022-09-05T02:34:01.732Z,100275.22
2022-09-05T02:36:36.873Z,100281.53
2022-09-05T02:45:02.023Z,100275.78
2022-09-05T02:45:10.693Z,100275.47
2022-09-05T02:45:25.488Z,100281.25
2022-09-05T02:48:14.692Z,100280.22
2022-09-05T02:57:28.594Z,100282.03
2022-09-05T02:57:37.620Z,100289.13
2022-09-05T02:57:43.274Z,100286.00
2022-09-05T02:59:47.455Z,100287.38
2022-09-05T03:02:25.308Z,100292.72
2022-09-05T03:05:04.664Z,100282.25
2022-09-05T03:07:50.053Z,100283.91
2022-09-05T03:10:51.808Z,100295.53
2022-09-05T03:14:00.094Z,100286.66
2022-09-05T03:17:03.134Z,100293.00
2022-09-05T03:20:11.011Z,100288.69
2022-09-05T03:23:18.933Z,100289.53
2022-09-05T03:26:17.847Z,100302.00
2022-09-05T03:29:17.653Z,100298.78
2022-09-05T03:32:05.451Z,100293.50
2022-09-05T03:35:09.898Z,100295.53
2022-09-05T03:37:50.532Z,100293.41
2022-09-05T03:40:40.234Z,100299.25
2022-09-05T03:43:41.856Z,100303.59
2022-09-05T03:46:25.091Z,100309.00
2022-09-05T03:51:09.258Z,100305.59
2022-09-05T03:57:11.253Z,100310.06
2022-09-05T03:57:17.061Z,100305.37
2022-09-05T03:58:57.142Z,100322.69
2022-09-05T04:06:58.365Z,100316.50
2022-09-05T04:08:13.701Z,100321.13
2022-09-05T04:08:15.371Z,100321.53
2022-09-05T04:10:15.408Z,100326.41
2022-09-05T04:12:51.068Z,100326.19
2022-09-05T04:15:31.709Z,100324.47
2022-09-05T04:18:03.968Z,100331.97
2022-09-05T04:20:40.662Z,100332.84
2022-09-05T04:23:16.713Z,100341.87
2022-09-05T04:26:11.019Z,100341.03
2022-09-05T04:28:54.094Z,100350.06
2022-09-05T04:31:32.126Z,100342.63
2022-09-05T04:34:14.409Z,100347.81
2022-09-05T04:36:43.400Z,100351.25
2022-09-05T04:39:26.264Z,100348.63
2022-09-05T04:41:59.733Z,100353.81
2022-09-05T04:44:31.225Z,100355.94
2022-09-05T04:47:04.558Z,100359.88
2022-09-05T04:49:35.284Z,100365.00
2022-09-05T04:52:17.522Z,100355.53
2022-09-05T04:54:57.441Z,100365.09
2022-09-05T04:57:30.969Z,100364.22
2022-09-05T05:05:32.016Z,100369.13
2022-09-05T05:06:10.314Z,100373.13
2022-09-05T05:06:19.943Z,100366.53
2022-09-05T05:08:52.037Z,100374.00
2022-09-05T05:17:53.638Z,100370.50
2022-09-05T05:18:02.812Z,100368.31
2022-09-05T05:18:11.661Z,100372.66
2022-09-05T05:20:42.578Z,100376.78
2022-09-05T05:23:07.742Z,100379.94
2022-09-05T05:25:44.519Z,100373.97
2022-09-05T05:28:22.579Z,100383.37
2022-09-05T05:31:01.211Z,100379.16
2022-09-05T05:33:33.023Z,100379.97
2022-09-05T05:36:05.474Z,100385.03
2022-09-05T05:38:41.861Z,100385.72
2022-09-05T05:41:16.493Z,100387.19
2022-09-05T05:43:46.800Z,100385.41
2022-09-05T05:46:24.998Z,100382.28
2022-09-05T05:48:57.005Z,100386.00
2022-09-05T05:52:01.386Z,100388.50
2022-09-05T05:54:32.855Z,100391.34
2022-09-05T05:57:22.075Z,100379.87
2022-09-05T05:59:59.026Z,100385.13
2022-09-05T06:03:09.766Z,100385.09
2022-09-05T06:06:15.898Z,100387.81
2022-09-05T06:14:49.842Z,100392.97
2022-09-05T06:15:07.078Z,100388.31
2022-09-05T06:16:19.089Z,100389.69
2022-09-05T06:19:12.426Z,100390.09
2022-09-05T06:22:09.974Z,100390.78
2022-09-05T06:25:21.946Z,100397.56
2022-09-05T06:28:19.363Z,100394.19
2022-09-05T06:31:30.918Z,100395.59
2022-09-05T06:34:07.019Z,100394.41
2022-09-05T06:36:55.679Z,100397.22
2022-09-05T06:39:36.536Z,100399.25
2022-09-05T06:42:42.508Z,100400.09
2022-09-05T06:45:28.399Z,100402.66
2022-09-05T06:48:01.061Z,100411.00
2022-09-05T06:51:07.202Z,100411.91
2022-09-05T06:53:48.716Z,100409.84
2022-09-05T06:56:56.173Z,100416.16
2022-09-05T06:59:59.282Z,100417.44
2022-09-05T07:02:59.393Z,100413.81
2022-09-05T07:05:42.616Z,100413.69
2022-09-05T07:08:35.258Z,100414.34
2022-09-05T07:11:16.908Z,100413.25
2022-09-05T07:13:55.870Z,100414.34
2022-09-05T07:16:37.797Z,100413.97
2022-09-05T07:19:30.199Z,100425.34
2022-09-05T07:22:46.302Z,100412.06
2022-09-05T07:25:09.275Z,100427.09
2022-09-05T07:28:22.254Z,100417.94
2022-09-05T07:30:32.639Z,100429.50
2022-09-05T07:33:03.908Z,100416.00
2022-09-05T07:35:41.656Z,100419.38
2022-09-05T07:38:16.688Z,100417.13
2022-09-05T07:40:52.173Z,100420.37
2022-09-05T07:43:23.945Z,100417.13
2022-09-05T07:46:03.657Z,100421.16
2022-09-05T07:48:36.760Z,100420.06
2022-09-05T07:56:46.499Z,100419.75
2022-09-05T07:56:59.130Z,100416.87
2022-09-05T07:59:43.747Z,100411.78
2022-09-05T08:02:13.750Z,100413.69
2022-09-05T08:04:43.042Z,100415.38
2022-09-05T08:07:48.049Z,100409.59
2022-09-05T08:10:10.466Z,100401.12
2022-09-05T08:13:22.709Z,100412.59
2022-09-05T08:15:35.317Z,100411.03
2022-09-05T08:18:24.367Z,100413.78
2022-09-05T08:20:55.831Z,100421.75
2022-09-05T08:23:40.324Z,100413.09
2022-09-05T08:26:12.178Z,100415.69
2022-09-05T08:28:53.606Z,100408.09
2022-09-05T08:31:25.480Z,100413.78
2022-09-05T08:33:56.814Z,100412.28
2022-09-05T08:36:31.357Z,100412.19
2022-09-05T08:39:02.111Z,100413.97
2022-09-05T08:41:43.170Z,100408.66
2022-09-05T08:46:37.623Z,100408.94
2022-09-05T08:47:24.095Z,100410.16
2022-09-05T08:50:28.785Z,100402.28
2022-09-05T08:53:03.807Z,100397.81
2022-09-05T08:55:59.976Z,100396.00
2022-09-05T08:58:42.373Z,100401.88
2022-09-05T09:01:16.430Z,100396.37
2022-09-05T09:04:11.491Z,100396.66
2022-09-05T09:07:48.106Z,100386.50
2022-09-05T09:09:59.413Z,100379.87
2022-09-05T09:12:49.762Z,100371.38
2022-09-05T09:15:21.807Z,100374.88
2022-09-05T09:17:50.972Z,100364.38
2022-09-05T09:20:33.568Z,100372.41
2022-09-05T09:23:05.480Z,100369.09
2022-09-05T09:25:39.970Z,100365.78
2022-09-05T09:28:50.235Z,100368.81
2022-09-05T09:31:41.703Z,100372.56
2022-09-05T09:34:36.776Z,100373.47
2022-09-05T09:37:46.615Z,100381.72
2022-09-05T09:40:38.505Z,100373.19
2022-09-05T09:43:19.948Z,100378.50
2022-09-05T09:46:10.880Z,100370.72
2022-09-05T09:49:03.921Z,100373.28
2022-09-05T09:51:48.285Z,100373.91
2022-09-05T09:55:01.885Z,100370.13
2022-09-05T09:57:55.950Z,100369.34
2022-09-05T10:00:27.550Z,100370.22
2022-09-05T10:10:24.731Z,100372.53
2022-09-05T10:10:40.438Z,100366.88
2022-09-05T10:10:53.062Z,100370.06
2022-09-05T10:12:52.071Z,100364.53
2022-09-05T10:15:43.811Z,100368.09
2022-09-05T10:18:39.549Z,100362.69
2022-09-05T10:21:34.458Z,100363.53
2022-09-05T10:24:28.086Z,100362.84
2022-09-05T10:27:26.529Z,100364.03
2022-09-05T10:30:12.581Z,100358.59
2022-09-05T10:35:22.834Z,100358.28
2022-09-05T10:35:40.869Z,100357.84
2022-09-05T10:38:14.140Z,100353.03
2022-09-05T10:41:20.212Z,100349.75
2022-09-05T10:43:42.928Z,100341.78
2022-09-05T10:46:46.639Z,100339.81
2022-09-05T10:49:11.753Z,100336.84
2022-09-05T10:51:51.753Z,100336.66
2022-09-05T10:54:40.294Z,100334.75
2022-09-05T10:57:21.644Z,100330.59
2022-09-05T11:02:22.306Z,100317.47
2022-09-05T11:02:57.631Z,100326.44
2022-09-05T11:05:30.040Z,100320.00
2022-09-05T11:08:06.347Z,100317.75
2022-09-05T11:10:37.667Z,100319.13
2022-09-05T11:13:16.263Z,100321.97
2022-09-05T11:16:03.393Z,100316.16
2022-09-05T11:18:56.299Z,100314.75
2022-09-05T11:22:07.457Z,100314.63
2022-09-05T11:24:50.029Z,100311.81
2022-09-05T11:27:27.700Z,100308.69
2022-09-05T11:29:59.419Z,100307.38
2022-09-05T11:39:54.718Z,100304.22
2022-09-05T11:39:57.725Z,100311.34
2022-09-05T11:39:59.595Z,100311.72
2022-09-05T11:42:19.321Z,100305.19
2022-09-05T11:45:11.390Z,100304.50
2022-09-05T11:48:20.442Z,100295.25
2022-09-05T11:51:08.116Z,100294.66
2022-09-05T11:54:18.247Z,100286.41
2022-09-05T11:57:30.470Z,100289.84
2022-09-05T12:00:32.065Z,100291.78
2022-09-05T12:03:57.198Z,100290.06
2022-09-05T12:07:16.019Z,100285.22
2022-09-05T12:10:05.926Z,100284.94
2022-09-05T12:12:41.107Z,100282.41
2022-09-05T12:15:23.118Z,100278.78
2022-09-05T12:18:00.642Z,100281.47
2022-09-05T12:20:37.952Z,100278.38
2022-09-05T12:23:55.245Z,100281.25
2022-09-05T12:27:43.063Z,100284.31
2022-09-05T12:29:29.159Z,100271.00
2022-09-05T12:36:12.499Z,100273.66
2022-09-05T12:40:15.732Z,100269.16
2022-09-05T12:41:38.352Z,100261.56
2022-09-05T12:41:42.042Z,100270.34
2022-09-05T12:43:52.654Z,100265.41
2022-09-05T12:46:28.439Z,100263.19
2022-09-05T12:49:07.331Z,100263.63
2022-09-05T12:51:46.924Z,100259.44
2022-09-05T12:54:34.049Z,100252.38
2022-09-05T12:59:40.211Z,100247.94
2022-09-05T13:03:02.326Z,100252.19
2022-09-05T13:03:28.456Z,100253.16
2022-09-05T13:05:59.101Z,100245.88
2022-09-05T13:08:40.028Z,100245.59
2022-09-05T13:14:47.251Z,100243.03
2022-09-05T13:15:01.928Z,100241.66
2022-09-05T13:16:53.559Z,100234.66
2022-09-05T13:19:23.807Z,100234.91
2022-09-05T13:21:56.197Z,100233.47
2022-09-05T13:24:30.743Z,100224.59
2022-09-05T13:27:07.713Z,100226.13
2022-09-05T13:30:57.732Z,100223.37
2022-09-05T13:37:55.157Z,100229.59
2022-09-05T13:38:14.752Z,100219.87
2022-09-05T13:38:47.841Z,100225.78
2022-09-05T13:41:26.636Z,100218.75
2022-09-05T13:44:00.362Z,100218.09
2022-09-05T13:46:58.267Z,100220.06
2022-09-05T13:49:33.299Z,100221.59
2022-09-05T13:52:15.433Z,100214.31
2022-09-05T13:54:50.987Z,100215.59
2022-09-05T13:57:33.152Z,100208.34
2022-09-05T14:00:38.325Z,100206.81
2022-09-05T14:03:58.907Z,100202.47
2022-09-05T14:06:49.231Z,100198.56
2022-09-05T14:09:39.672Z,100194.84
2022-09-05T14:12:12.787Z,100185.84
2022-09-05T14:17:51.860Z,100192.41
2022-09-05T14:20:43.052Z,100183.09
2022-09-05T14:23:15.940Z,100179.66
2022-09-05T14:25:49.943Z,100176.22
2022-09-05T14:28:27.149Z,100177.81
2022-09-05T14:35:12.334Z,100173.75
2022-09-05T14:37:43.461Z,100176.06
2022-09-05T14:37:50.094Z,100171.56
2022-09-05T14:40:29.822Z,100171.31
2022-09-05T14:43:24.449Z,100164.38
2022-09-05T14:46:11.114Z,100159.22
2022-09-05T14:48:53.072Z,100158.38
2022-09-05T14:51:30.821Z,100159.03
2022-09-05T14:54:02.300Z,100160.50
2022-09-05T14:59:56.757Z,100167.72
2022-09-05T15:02:42.570Z,100164.09
2022-09-05T15:02:54.995Z,100163.09
2022-09-05T15:05:19.020Z,100153.81
2022-09-05T15:07:49.033Z,100154.94
2022-09-05T15:12:17.766Z,100148.31
2022-09-05T15:13:25.893Z,100145.91
2022-09-05T15:16:02.601Z,100155.47
2022-09-05T15:18:33.731Z,100147.53
2022-09-05T15:21:33.809Z,100147.91
2022-09-05T15:24:14.828Z,100144.00
2022-09-05T15:26:53.315Z,100150.47
2022-09-05T15:29:25.723Z,100159.97
2022-09-05T15:32:09.416Z,100154.09
2022-09-05T15:34:39.364Z,100147.31
2022-09-05T15:37:31.963Z,100149.72
2022-09-05T15:40:21.824Z,100147.12
2022-09-05T15:42:55.484Z,100155.97
2022-09-05T15:45:29.083Z,100151.91
2022-09-05T15:48:16.347Z,100150.25
2022-09-05T15:50:46.942Z,100142.69
2022-09-05T15:53:17.925Z,100150.53
2022-09-05T15:55:49.906Z,100140.69
2022-09-05T15:58:22.115Z,100149.19
2022-09-05T16:00:55.438Z,100141.91
2022-09-05T16:03:56.609Z,100142.59
2022-09-05T16:10:30.752Z,100135.31
2022-09-05T16:10:37.633Z,100138.22
2022-09-05T16:12:30.142Z,100139.06
2022-09-05T16:17:07.001Z,100131.47
2022-09-05T16:23:19.632Z,100131.69
2022-09-05T16:23:32.673Z,100128.19
2022-09-05T16:23:42.871Z,100116.44
2022-09-05T16:26:19.096Z,100122.56
2022-09-05T16:28:58.755Z,100113.25
2022-09-05T16:31:34.887Z,100124.91
2022-09-05T16:34:11.686Z,100118.53
2022-09-05T16:36:54.766Z,100112.28
2022-09-05T16:39:39.778Z,100114.69
2022-09-05T16:42:15.828Z,100114.69
2022-09-05T16:44:48.464Z,100116.22
2022-09-05T16:47:23.263Z,100115.63
2022-09-05T16:50:00.168Z,100109.94
2022-09-05T16:52:53.519Z,100107.81
2022-09-05T16:55:29.623Z,100115.78
2022-09-05T16:58:06.496Z,100111.34
2022-09-05T17:00:58.206Z,100112.63
2022-09-05T17:03:36.685Z,100110.91
2022-09-05T17:06:26.390Z,100112.09
2022-09-05T17:09:09.571Z,100109.22
2022-09-05T17:12:01.119Z,100119.41
2022-09-05T17:14:35.524Z,100119.09
2022-09-05T17:17:36.175Z,100115.16
2022-09-05T17:20:07.223Z,100122.25
2022-09-05T17:25:54.158Z,100121.03
2022-09-05T17:29:24.330Z,100122.22
2022-09-05T17:29:31.063Z,100123.41
2022-09-05T17:34:48.008Z,100128.37
2022-09-05T17:37:23.849Z,100122.31
2022-09-05T17:39:59.935Z,100125.94
2022-09-05T17:42:39.309Z,100125.09
2022-09-05T17:45:16.612Z,100129.91
2022-09-05T17:47:49.418Z,100122.19
2022-09-05T17:50:22.903Z,100127.84
2022-09-05T17:53:26.226Z,100131.44
2022-09-05T17:56:13.399Z,100128.41
2022-09-05T17:59:04.319Z,100132.00
2022-09-05T18:01:34.825Z,100138.28
2022-09-05T18:04:16.699Z,100138.38
2022-09-05T18:06:51.053Z,100147.28
2022-09-05T18:10:15.211Z,100147.66
2022-09-05T18:13:13.284Z,100154.75
2022-09-05T18:16:10.615Z,100152.75
2022-09-05T18:19:33.590Z,100158.97
2022-09-05T18:21:49.786Z,100159.19
2022-09-05T18:24:33.448Z,100156.00
2022-09-05T18:27:37.912Z,100154.94
2022-09-05T18:30:12.649Z,100154.63
2022-09-05T18:32:45.131Z,100160.84
2022-09-05T18:35:36.288Z,100161.97
2022-09-05T18:38:27.457Z,100160.81
2022-09-05T18:41:15.074Z,100172.47
2022-09-05T18:44:00.492Z,100166.25
2022-09-05T18:46:44.905Z,100167.19
2022-09-05T18:50:23.897Z,100180.25
2022-09-05T18:52:11.896Z,100175.47
2022-09-05T18:54:43.359Z,100177.69
2022-09-05T18:57:26.963Z,100170.94
2022-09-05T19:00:00.191Z,100172.72
2022-09-05T19:02:51.470Z,100165.13
2022-09-05T19:05:37.123Z,100167.69
2022-09-05T19:08:31.983Z,100165.47
2022-09-05T19:11:26.903Z,100162.91
2022-09-05T19:14:25.390Z,100164.31
2022-09-05T19:16:47.922Z,100158.44
2022-09-05T19:19:24.380Z,100161.47
2022-09-05T19:23:06.630Z,100160.78
2022-09-05T19:24:47.469Z,100157.94
2022-09-05T19:29:23.305Z,100159.72
2022-09-05T19:36:56.640Z,100157.28
2022-09-05T19:37:03.294Z,100160.38
2022-09-05T19:37:06.262Z,100152.81
2022-09-05T19:40:48.845Z,100154.97
2022-09-05T19:47:25.171Z,100149.44
2022-09-05T19:47:39.632Z,100153.31
2022-09-05T19:47:40.242Z,100155.06
2022-09-05T19:50:11.712Z,100147.94
2022-09-05T19:52:42.125Z,100150.03
2022-09-05T19:55:22.717Z,100152.13
2022-09-05T19:58:14.995Z,100150.81
2022-09-05T20:00:50.380Z,100149.91
2022-09-05T20:03:38.710Z,100146.47
2022-09-05T20:06:29.281Z,100142.81
2022-09-05T20:09:15.313Z,100145.53
2022-09-05T20:11:49.619Z,100149.72
2022-09-05T20:14:21.359Z,100145.66
2022-09-05T20:16:50.917Z,100150.19
2022-09-05T20:19:31.715Z,100143.66
2022-09-05T20:22:21.208Z,100146.47
2022-09-05T20:24:53.921Z,100146.63
2022-09-05T20:27:27.507Z,100149.00
2022-09-05T20:29:59.079Z,100139.56
2022-09-05T20:32:39.396Z,100144.28
2022-09-05T20:37:51.629Z,100139.75
2022-09-05T20:43:10.506Z,100143.34
2022-09-05T20:43:19.944Z,100147.69
2022-09-05T20:43:54.563Z,100143.41
2022-09-05T20:49:22.898Z,100144.75
2022-09-05T20:54:08.767Z,100150.75
2022-09-05T20:54:12.793Z,100140.06
2022-09-05T20:55:38.898Z,100145.87
2022-09-05T20:58:10.648Z,100148.66
2022-09-05T21:00:46.356Z,100145.72
2022-09-05T21:03:36.770Z,100140.06
2022-09-05T21:06:13.896Z,100146.72
2022-09-05T21:08:43.001Z,100153.81
2022-09-05T21:11:13.567Z,100149.66
2022-09-05T21:13:52.335Z,100152.06
2022-09-05T21:16:25.708Z,100157.22
2022-09-05T21:18:54.731Z,100150.56
2022-09-05T21:21:28.381Z,100151.19
2022-09-05T21:24:08.984Z,100158.19
2022-09-05T21:26:45.877Z,100164.56
2022-09-05T21:29:18.087Z,100166.13
2022-09-05T21:31:54.749Z,100163.72
2022-09-05T21:34:29.502Z,100158.97
2022-09-05T21:37:06.897Z,100158.06
2022-09-05T21:39:55.303Z,100161.16
2022-09-05T21:47:01.500Z,100153.47
2022-09-05T21:47:38.860Z,100163.13
2022-09-05T21:48:11.928Z,100155.03
2022-09-05T21:50:46.168Z,100155.78
2022-09-05T21:59:10.272Z,100149.37
2022-09-05T21:59:17.795Z,100151.16
2022-09-05T21:59:25.013Z,100151.78
2022-09-05T22:02:00.328Z,100160.00
2022-09-05T22:04:29.297Z,100155.25
2022-09-05T22:07:02.567Z,100153.69
2022-09-05T22:09:31.753Z,100150.91
2022-09-05T22:12:00.404Z,100156.56
2022-09-05T22:14:35.155Z,100150.88
2022-09-05T22:17:07.077Z,100152.13
2022-09-05T22:19:37.416Z,100152.00
2022-09-05T22:22:16.220Z,100148.66
2022-09-05T22:24:49.786Z,100155.56
2022-09-05T22:27:20.161Z,100148.81
2022-09-05T22:29:50.425Z,100147.88
2022-09-05T22:32:34.480Z,100145.06
2022-09-05T22:35:27.252Z,100143.25
2022-09-05T22:38:01.022Z,100140.44
2022-09-05T22:40:31.572Z,100140.28
2022-09-05T22:43:01.480Z,100144.47
2022-09-05T22:45:34.361Z,100147.19
2022-09-05T22:48:13.107Z,100145.78
2022-09-05T22:50:43.178Z,100141.28
2022-09-05T22:53:11.914Z,100137.84
2022-09-05T22:55:42.103Z,100142.34
2022-09-05T22:58:13.012Z,100138.63
2022-09-05T23:00:44.777Z,100139.47
2022-09-05T23:03:15.233Z,100134.84
2022-09-05T23:05:44.010Z,100135.81
2022-09-05T23:08:13.220Z,100139.47
2022-09-05T23:10:41.835Z,100139.47
2022-09-05T23:13:11.441Z,100127.41
2022-09-05T23:15:40.497Z,100128.53
2022-09-05T23:18:09.215Z,100123.41
2022-09-05T23:20:39.304Z,100127.12
2022-09-05T23:23:08.618Z,100128.69
2022-09-05T23:25:37.487Z,100125.72
2022-09-05T23:28:07.437Z,100129.94
2022-09-05T23:30:36.598Z,100128.72
2022-09-05T23:33:06.737Z,100129.50
2022-09-05T23:35:41.753Z,100121.66
2022-09-05T23:38:12.594Z,100117.50
2022-09-05T23:40:41.216Z,100117.81
2022-09-05T23:43:10.365Z,100112.72
2022-09-05T23:45:38.976Z,100111.44
2022-09-05T23:48:07.559Z,100114.03
2022-09-05T23:50:36.468Z,100114.31
2022-09-05T23:53:05.665Z,100111.63
2022-09-05T23:55:36.711Z,100109.22
2022-09-05T23:58:05.586Z,100111.91
